sensor_id;sensor_type;location;lat;lon;timestamp;temperature;humidity
17827;DHT22;9038;48.208;16.308;2024-02-04T00:00:14;9.80;99.90
17827;DHT22;9038;48.208;16.308;2024-02-04T00:02:17;9.70;99.90
17827;DHT22;9038;48.208;16.308;2024-02-04T00:04:22;9.70;99.90
17827;DHT22;9038;48.208;16.308;2024-02-04T00:06:25;9.70;99.90
17827;DHT22;9038;48.208;16.308;2024-02-04T00:08:26;9.70;99.90
17827;DHT22;9038;48.208;16.308;2024-02-04T00:10:28;9.80;99.90
17827;DHT22;9038;48.208;16.308;2024-02-04T00:12:30;9.80;99.90
17827;DHT22;9038;48.208;16.308;2024-02-04T00:14:32;9.80;99.90
17827;DHT22;9038;48.208;16.308;2024-02-04T00:16:33;9.80;99.90
17827;DHT22;9038;48.208;16.308;2024-02-04T00:18:35;9.80;99.90
17827;DHT22;9038;48.208;16.308;2024-02-04T00:20:38;9.70;99.90
17827;DHT22;9038;48.208;16.308;2024-02-04T00:22:40;9.70;99.90
17827;DHT22;9038;48.208;16.308;2024-02-04T00:24:41;9.70;99.90
17827;DHT22;9038;48.208;16.308;2024-02-04T00:26:43;9.80;99.90
17827;DHT22;9038;48.208;16.308;2024-02-04T00:28:45;9.70;99.90
17827;DHT22;9038;48.208;16.308;2024-02-04T00:30:47;9.70;99.90
17827;DHT22;9038;48.208;16.308;2024-02-04T00:32:50;9.70;99.90
17827;DHT22;9038;48.208;16.308;2024-02-04T00:34:51;9.70;99.90
17827;DHT22;9038;48.208;16.308;2024-02-04T00:36:54;9.70;99.90
17827;DHT22;9038;48.208;16.308;2024-02-04T00:38:56;9.80;99.90
17827;DHT22;9038;48.208;16.308;2024-02-04T00:40:57;9.80;99.90
17827;DHT22;9038;48.208;16.308;2024-02-04T00:42:59;9.70;99.90
17827;DHT22;9038;48.208;16.308;2024-02-04T00:45:00;9.80;99.90
17827;DHT22;9038;48.208;16.308;2024-02-04T00:47:03;9.80;99.90
17827;DHT22;9038;48.208;16.308;2024-02-04T00:49:04;9.80;99.90
17827;DHT22;9038;48.208;16.308;2024-02-04T00:51:06;9.80;99.90
17827;DHT22;9038;48.208;16.308;2024-02-04T00:53:10;9.80;99.90
17827;DHT22;9038;48.208;16.308;2024-02-04T00:55:11;9.90;99.90
17827;DHT22;9038;48.208;16.308;2024-02-04T00:57:13;9.90;99.90
17827;DHT22;9038;48.208;16.308;2024-02-04T00:59:15;9.90;99.90
17827;DHT22;9038;48.208;16.308;2024-02-04T01:01:17;9.90;99.90
17827;DHT22;9038;48.208;16.308;2024-02-04T01:03:20;9.90;99.90
17827;DHT22;9038;48.208;16.308;2024-02-04T01:05:20;9.90;99.90
17827;DHT22;9038;48.208;16.308;2024-02-04T01:07:22;9.90;99.90
17827;DHT22;9038;48.208;16.308;2024-02-04T01:09:26;9.90;99.90
17827;DHT22;9038;48.208;16.308;2024-02-04T01:11:28;10.00;99.90
17827;DHT22;9038;48.208;16.308;2024-02-04T01:13:31;10.00;99.90
17827;DHT22;9038;48.208;16.308;2024-02-04T01:15:32;10.00;99.90
17827;DHT22;9038;48.208;16.308;2024-02-04T01:17:33;10.00;99.90
17827;DHT22;9038;48.208;16.308;2024-02-04T01:19:35;10.00;99.90
17827;DHT22;9038;48.208;16.308;2024-02-04T01:21:40;9.90;99.90
17827;DHT22;9038;48.208;16.308;2024-02-04T01:23:42;9.90;99.90
17827;DHT22;9038;48.208;16.308;2024-02-04T01:25:45;9.90;99.90
17827;DHT22;9038;48.208;16.308;2024-02-04T01:27:47;9.80;99.90
17827;DHT22;9038;48.208;16.308;2024-02-04T01:29:48;9.90;99.90
17827;DHT22;9038;48.208;16.308;2024-02-04T01:31:50;9.80;99.90
17827;DHT22;9038;48.208;16.308;2024-02-04T01:33:52;9.80;99.90
17827;DHT22;9038;48.208;16.308;2024-02-04T01:35:54;9.80;99.90
17827;DHT22;9038;48.208;16.308;2024-02-04T01:37:55;9.70;99.90
17827;DHT22;9038;48.208;16.308;2024-02-04T01:39:57;9.80;99.90
17827;DHT22;9038;48.208;16.308;2024-02-04T01:42:00;9.70;99.90
17827;DHT22;9038;48.208;16.308;2024-02-04T01:44:02;9.70;99.90
17827;DHT22;9038;48.208;16.308;2024-02-04T01:46:04;9.70;99.90
17827;DHT22;9038;48.208;16.308;2024-02-04T01:48:07;9.70;99.90
17827;DHT22;9038;48.208;16.308;2024-02-04T01:50:09;9.60;99.90
17827;DHT22;9038;48.208;16.308;2024-02-04T01:52:12;9.60;99.90
17827;DHT22;9038;48.208;16.308;2024-02-04T01:54:14;9.60;99.90
17827;DHT22;9038;48.208;16.308;2024-02-04T01:56:17;9.60;99.90
17827;DHT22;9038;48.208;16.308;2024-02-04T01:58:20;9.50;99.90
17827;DHT22;9038;48.208;16.308;2024-02-04T02:00:22;9.50;99.90
17827;DHT22;9038;48.208;16.308;2024-02-04T02:02:25;9.40;99.90
17827;DHT22;9038;48.208;16.308;2024-02-04T02:04:27;9.40;99.90
17827;DHT22;9038;48.208;16.308;2024-02-04T02:06:29;9.40;99.90
17827;DHT22;9038;48.208;16.308;2024-02-04T02:08:31;9.40;99.90
17827;DHT22;9038;48.208;16.308;2024-02-04T02:10:33;9.40;99.90
17827;DHT22;9038;48.208;16.308;2024-02-04T02:12:40;9.30;99.90
17827;DHT22;9038;48.208;16.308;2024-02-04T02:14:49;9.30;99.90
17827;DHT22;9038;48.208;16.308;2024-02-04T02:16:52;9.20;99.90
17827;DHT22;9038;48.208;16.308;2024-02-04T02:19:02;9.20;99.90
17827;DHT22;9038;48.208;16.308;2024-02-04T02:21:19;9.10;99.90
17827;DHT22;9038;48.208;16.308;2024-02-04T02:23:30;9.10;99.90
17827;DHT22;9038;48.208;16.308;2024-02-04T02:25:36;9.00;99.90
17827;DHT22;9038;48.208;16.308;2024-02-04T02:27:46;9.00;99.90
17827;DHT22;9038;48.208;16.308;2024-02-04T02:29:48;9.00;99.90
17827;DHT22;9038;48.208;16.308;2024-02-04T02:31:50;9.00;99.90
17827;DHT22;9038;48.208;16.308;2024-02-04T02:33:52;9.00;99.90
17827;DHT22;9038;48.208;16.308;2024-02-04T02:35:56;9.10;99.90
17827;DHT22;9038;48.208;16.308;2024-02-04T02:38:08;9.10;99.90
17827;DHT22;9038;48.208;16.308;2024-02-04T02:40:28;9.10;99.90
17827;DHT22;9038;48.208;16.308;2024-02-04T02:42:34;9.10;99.90
17827;DHT22;9038;48.208;16.308;2024-02-04T02:44:44;9.10;99.90
17827;DHT22;9038;48.208;16.308;2024-02-04T02:46:49;9.10;99.90
17827;DHT22;9038;48.208;16.308;2024-02-04T02:48:55;9.10;99.90
17827;DHT22;9038;48.208;16.308;2024-02-04T02:51:00;9.10;99.90
17827;DHT22;9038;48.208;16.308;2024-02-04T02:53:02;9.10;99.90
17827;DHT22;9038;48.208;16.308;2024-02-04T02:55:08;9.10;99.90
17827;DHT22;9038;48.208;16.308;2024-02-04T02:57:10;9.10;99.90
17827;DHT22;9038;48.208;16.308;2024-02-04T02:59:18;9.10;99.90
17827;DHT22;9038;48.208;16.308;2024-02-04T03:01:20;9.10;99.90
17827;DHT22;9038;48.208;16.308;2024-02-04T03:03:29;9.10;99.90
17827;DHT22;9038;48.208;16.308;2024-02-04T03:05:31;9.10;99.90
17827;DHT22;9038;48.208;16.308;2024-02-04T03:07:36;9.10;99.90
17827;DHT22;9038;48.208;16.308;2024-02-04T03:09:39;9.20;99.90
17827;DHT22;9038;48.208;16.308;2024-02-04T03:11:42;9.20;99.90
17827;DHT22;9038;48.208;16.308;2024-02-04T03:13:55;9.20;99.90
17827;DHT22;9038;48.208;16.308;2024-02-04T03:15:58;9.20;99.90
17827;DHT22;9038;48.208;16.308;2024-02-04T03:18:00;9.20;99.90
17827;DHT22;9038;48.208;16.308;2024-02-04T03:20:03;9.20;99.90
17827;DHT22;9038;48.208;16.308;2024-02-04T03:22:05;9.20;99.90
17827;DHT22;9038;48.208;16.308;2024-02-04T03:24:09;9.20;99.90
17827;DHT22;9038;48.208;16.308;2024-02-04T03:26:16;9.20;99.90
17827;DHT22;9038;48.208;16.308;2024-02-04T03:28:22;9.20;99.90
17827;DHT22;9038;48.208;16.308;2024-02-04T03:30:37;9.20;99.90
17827;DHT22;9038;48.208;16.308;2024-02-04T03:32:41;9.20;99.90
17827;DHT22;9038;48.208;16.308;2024-02-04T03:34:42;9.20;99.90
17827;DHT22;9038;48.208;16.308;2024-02-04T03:36:46;9.20;99.90
17827;DHT22;9038;48.208;16.308;2024-02-04T03:38:55;9.20;99.90
17827;DHT22;9038;48.208;16.308;2024-02-04T03:40:59;9.10;99.90
17827;DHT22;9038;48.208;16.308;2024-02-04T03:43:04;9.10;99.90
17827;DHT22;9038;48.208;16.308;2024-02-04T03:45:08;9.20;99.90
17827;DHT22;9038;48.208;16.308;2024-02-04T03:47:10;9.20;99.90
17827;DHT22;9038;48.208;16.308;2024-02-04T03:49:16;9.20;99.90
17827;DHT22;9038;48.208;16.308;2024-02-04T03:51:18;9.30;99.90
17827;DHT22;9038;48.208;16.308;2024-02-04T03:53:20;9.30;99.90
17827;DHT22;9038;48.208;16.308;2024-02-04T03:55:26;9.30;99.90
17827;DHT22;9038;48.208;16.308;2024-02-04T03:57:28;9.30;99.90
17827;DHT22;9038;48.208;16.308;2024-02-04T03:59:31;9.30;99.90
17827;DHT22;9038;48.208;16.308;2024-02-04T04:01:35;9.40;99.90
17827;DHT22;9038;48.208;16.308;2024-02-04T04:03:40;9.40;99.90
17827;DHT22;9038;48.208;16.308;2024-02-04T04:05:43;9.40;99.90
17827;DHT22;9038;48.208;16.308;2024-02-04T04:07:45;9.40;99.90
17827;DHT22;9038;48.208;16.308;2024-02-04T04:09:47;9.40;99.90
17827;DHT22;9038;48.208;16.308;2024-02-04T04:11:48;9.40;99.90
17827;DHT22;9038;48.208;16.308;2024-02-04T04:13:50;9.40;99.90
17827;DHT22;9038;48.208;16.308;2024-02-04T04:15:51;9.40;99.90
17827;DHT22;9038;48.208;16.308;2024-02-04T04:17:53;9.50;99.90
17827;DHT22;9038;48.208;16.308;2024-02-04T04:19:55;9.50;99.90
17827;DHT22;9038;48.208;16.308;2024-02-04T04:22:00;9.40;99.90
17827;DHT22;9038;48.208;16.308;2024-02-04T04:24:02;9.40;99.90
17827;DHT22;9038;48.208;16.308;2024-02-04T04:26:04;9.40;99.90
17827;DHT22;9038;48.208;16.308;2024-02-04T04:28:06;9.30;99.90
17827;DHT22;9038;48.208;16.308;2024-02-04T04:30:08;9.30;99.90
17827;DHT22;9038;48.208;16.308;2024-02-04T04:32:17;9.30;99.90
17827;DHT22;9038;48.208;16.308;2024-02-04T04:34:19;9.30;99.90
17827;DHT22;9038;48.208;16.308;2024-02-04T04:36:21;9.30;99.90
17827;DHT22;9038;48.208;16.308;2024-02-04T04:38:24;9.30;99.90
17827;DHT22;9038;48.208;16.308;2024-02-04T04:40:26;9.20;99.90
17827;DHT22;9038;48.208;16.308;2024-02-04T04:42:28;9.20;99.90
17827;DHT22;9038;48.208;16.308;2024-02-04T04:44:32;9.20;99.90
17827;DHT22;9038;48.208;16.308;2024-02-04T04:46:37;9.20;99.90
17827;DHT22;9038;48.208;16.308;2024-02-04T04:48:38;9.20;99.90
17827;DHT22;9038;48.208;16.308;2024-02-04T04:50:40;9.30;99.90
17827;DHT22;9038;48.208;16.308;2024-02-04T04:52:42;9.30;99.90
17827;DHT22;9038;48.208;16.308;2024-02-04T04:54:44;9.30;99.90
17827;DHT22;9038;48.208;16.308;2024-02-04T04:56:46;9.30;99.90
17827;DHT22;9038;48.208;16.308;2024-02-04T04:58:48;9.30;99.90
17827;DHT22;9038;48.208;16.308;2024-02-04T05:00:50;9.30;99.90
17827;DHT22;9038;48.208;16.308;2024-02-04T05:02:52;9.40;99.90
17827;DHT22;9038;48.208;16.308;2024-02-04T05:04:54;9.40;99.90
17827;DHT22;9038;48.208;16.308;2024-02-04T05:06:56;9.40;99.90
17827;DHT22;9038;48.208;16.308;2024-02-04T05:08:57;9.40;99.90
17827;DHT22;9038;48.208;16.308;2024-02-04T05:11:01;9.40;99.90
17827;DHT22;9038;48.208;16.308;2024-02-04T05:13:03;9.30;99.90
17827;DHT22;9038;48.208;16.308;2024-02-04T05:15:06;9.40;99.90
17827;DHT22;9038;48.208;16.308;2024-02-04T05:17:08;9.40;99.90
17827;DHT22;9038;48.208;16.308;2024-02-04T05:19:10;9.40;99.90
17827;DHT22;9038;48.208;16.308;2024-02-04T05:21:13;9.50;99.90
17827;DHT22;9038;48.208;16.308;2024-02-04T05:23:15;9.50;99.90
17827;DHT22;9038;48.208;16.308;2024-02-04T05:25:16;9.50;99.90
17827;DHT22;9038;48.208;16.308;2024-02-04T05:27:20;9.50;99.90
17827;DHT22;9038;48.208;16.308;2024-02-04T05:29:22;9.60;99.90
17827;DHT22;9038;48.208;16.308;2024-02-04T05:31:23;9.60;99.90
17827;DHT22;9038;48.208;16.308;2024-02-04T05:33:25;9.60;99.90
17827;DHT22;9038;48.208;16.308;2024-02-04T05:35:26;9.60;99.90
17827;DHT22;9038;48.208;16.308;2024-02-04T05:37:28;9.50;99.90
17827;DHT22;9038;48.208;16.308;2024-02-04T05:39:30;9.50;99.90
17827;DHT22;9038;48.208;16.308;2024-02-04T05:41:31;9.50;99.90
17827;DHT22;9038;48.208;16.308;2024-02-04T05:43:34;9.40;99.90
17827;DHT22;9038;48.208;16.308;2024-02-04T05:45:37;9.40;99.90
17827;DHT22;9038;48.208;16.308;2024-02-04T05:47:39;9.40;99.90
17827;DHT22;9038;48.208;16.308;2024-02-04T05:49:41;9.40;99.90
17827;DHT22;9038;48.208;16.308;2024-02-04T05:51:43;9.30;99.90
17827;DHT22;9038;48.208;16.308;2024-02-04T05:53:45;9.30;99.90
17827;DHT22;9038;48.208;16.308;2024-02-04T05:55:46;9.30;99.90
17827;DHT22;9038;48.208;16.308;2024-02-04T05:57:48;9.30;99.90
17827;DHT22;9038;48.208;16.308;2024-02-04T05:59:52;9.40;99.90
17827;DHT22;9038;48.208;16.308;2024-02-04T06:01:55;9.30;99.90
17827;DHT22;9038;48.208;16.308;2024-02-04T06:03:57;9.30;99.90
17827;DHT22;9038;48.208;16.308;2024-02-04T06:05:58;9.40;99.90
17827;DHT22;9038;48.208;16.308;2024-02-04T06:08:00;9.30;99.90
17827;DHT22;9038;48.208;16.308;2024-02-04T06:10:02;9.30;99.90
17827;DHT22;9038;48.208;16.308;2024-02-04T06:12:04;9.30;99.90
17827;DHT22;9038;48.208;16.308;2024-02-04T06:14:07;9.30;99.90
17827;DHT22;9038;48.208;16.308;2024-02-04T06:16:10;9.30;99.90
17827;DHT22;9038;48.208;16.308;2024-02-04T06:18:13;9.30;99.90
17827;DHT22;9038;48.208;16.308;2024-02-04T06:20:14;9.40;99.90
17827;DHT22;9038;48.208;16.308;2024-02-04T06:22:16;9.40;99.90
17827;DHT22;9038;48.208;16.308;2024-02-04T06:24:18;9.40;99.90
17827;DHT22;9038;48.208;16.308;2024-02-04T06:26:20;9.30;99.90
17827;DHT22;9038;48.208;16.308;2024-02-04T06:28:22;9.40;99.90
17827;DHT22;9038;48.208;16.308;2024-02-04T06:30:23;9.40;99.90
17827;DHT22;9038;48.208;16.308;2024-02-04T06:32:26;9.40;99.90
17827;DHT22;9038;48.208;16.308;2024-02-04T06:34:28;9.40;99.90
17827;DHT22;9038;48.208;16.308;2024-02-04T06:36:29;9.40;99.90
17827;DHT22;9038;48.208;16.308;2024-02-04T06:38:31;9.40;99.90
17827;DHT22;9038;48.208;16.308;2024-02-04T06:40:33;9.40;99.90
17827;DHT22;9038;48.208;16.308;2024-02-04T06:42:35;9.40;99.90
17827;DHT22;9038;48.208;16.308;2024-02-04T06:44:36;9.40;99.90
17827;DHT22;9038;48.208;16.308;2024-02-04T06:46:38;9.50;99.90
17827;DHT22;9038;48.208;16.308;2024-02-04T06:48:42;9.50;99.90
17827;DHT22;9038;48.208;16.308;2024-02-04T06:50:42;9.50;99.90
17827;DHT22;9038;48.208;16.308;2024-02-04T06:52:46;9.50;99.90
17827;DHT22;9038;48.208;16.308;2024-02-04T06:54:48;9.50;99.90
17827;DHT22;9038;48.208;16.308;2024-02-04T06:56:51;9.60;99.90
17827;DHT22;9038;48.208;16.308;2024-02-04T06:58:53;9.70;99.90
17827;DHT22;9038;48.208;16.308;2024-02-04T07:00:53;9.90;99.90
17827;DHT22;9038;48.208;16.308;2024-02-04T07:02:55;9.90;99.90
17827;DHT22;9038;48.208;16.308;2024-02-04T07:04:58;9.90;99.90
17827;DHT22;9038;48.208;16.308;2024-02-04T07:07:00;9.90;99.90
17827;DHT22;9038;48.208;16.308;2024-02-04T07:09:01;10.00;99.90
17827;DHT22;9038;48.208;16.308;2024-02-04T07:11:04;10.00;99.90
17827;DHT22;9038;48.208;16.308;2024-02-04T07:13:05;10.10;99.90
17827;DHT22;9038;48.208;16.308;2024-02-04T07:15:08;10.10;99.90
17827;DHT22;9038;48.208;16.308;2024-02-04T07:17:10;10.10;99.90
17827;DHT22;9038;48.208;16.308;2024-02-04T07:19:13;10.20;99.90
17827;DHT22;9038;48.208;16.308;2024-02-04T07:21:17;10.20;99.90
17827;DHT22;9038;48.208;16.308;2024-02-04T07:23:19;10.30;99.90
17827;DHT22;9038;48.208;16.308;2024-02-04T07:25:20;10.30;99.90
17827;DHT22;9038;48.208;16.308;2024-02-04T07:27:21;10.30;99.90
17827;DHT22;9038;48.208;16.308;2024-02-04T07:29:23;10.40;99.90
17827;DHT22;9038;48.208;16.308;2024-02-04T07:31:25;10.40;99.90
17827;DHT22;9038;48.208;16.308;2024-02-04T07:33:27;10.40;99.90
17827;DHT22;9038;48.208;16.308;2024-02-04T07:35:29;10.40;99.90
17827;DHT22;9038;48.208;16.308;2024-02-04T07:37:32;10.40;99.90
17827;DHT22;9038;48.208;16.308;2024-02-04T07:39:34;10.40;99.90
17827;DHT22;9038;48.208;16.308;2024-02-04T07:41:36;10.50;99.90
17827;DHT22;9038;48.208;16.308;2024-02-04T07:43:38;10.50;99.90
17827;DHT22;9038;48.208;16.308;2024-02-04T07:45:40;10.60;99.90
17827;DHT22;9038;48.208;16.308;2024-02-04T07:47:42;10.60;99.90
17827;DHT22;9038;48.208;16.308;2024-02-04T07:49:44;10.60;99.90
17827;DHT22;9038;48.208;16.308;2024-02-04T07:51:48;10.70;99.90
17827;DHT22;9038;48.208;16.308;2024-02-04T07:53:51;10.70;99.90
17827;DHT22;9038;48.208;16.308;2024-02-04T07:55:53;10.80;99.90
17827;DHT22;9038;48.208;16.308;2024-02-04T07:57:55;10.80;99.90
17827;DHT22;9038;48.208;16.308;2024-02-04T07:59:57;10.90;99.90
17827;DHT22;9038;48.208;16.308;2024-02-04T08:01:58;11.00;99.90
17827;DHT22;9038;48.208;16.308;2024-02-04T08:04:00;11.00;99.90
17827;DHT22;9038;48.208;16.308;2024-02-04T08:06:03;10.90;99.90
17827;DHT22;9038;48.208;16.308;2024-02-04T08:08:05;11.00;99.90
17827;DHT22;9038;48.208;16.308;2024-02-04T08:10:09;11.00;99.90
17827;DHT22;9038;48.208;16.308;2024-02-04T08:12:11;11.10;99.90
17827;DHT22;9038;48.208;16.308;2024-02-04T08:14:13;11.10;99.90
17827;DHT22;9038;48.208;16.308;2024-02-04T08:16:15;11.10;99.90
17827;DHT22;9038;48.208;16.308;2024-02-04T08:18:17;11.20;99.90
17827;DHT22;9038;48.208;16.308;2024-02-04T08:20:19;11.20;99.90
17827;DHT22;9038;48.208;16.308;2024-02-04T08:22:22;11.30;99.90
17827;DHT22;9038;48.208;16.308;2024-02-04T08:24:24;11.40;99.90
17827;DHT22;9038;48.208;16.308;2024-02-04T08:26:27;11.40;99.90
17827;DHT22;9038;48.208;16.308;2024-02-04T08:28:29;11.50;99.90
17827;DHT22;9038;48.208;16.308;2024-02-04T08:30:31;11.50;99.90
17827;DHT22;9038;48.208;16.308;2024-02-04T08:32:33;11.50;99.90
17827;DHT22;9038;48.208;16.308;2024-02-04T08:34:35;11.50;99.90
17827;DHT22;9038;48.208;16.308;2024-02-04T08:36:37;11.50;99.90
17827;DHT22;9038;48.208;16.308;2024-02-04T08:38:39;11.50;99.90
17827;DHT22;9038;48.208;16.308;2024-02-04T08:40:41;11.50;99.90
17827;DHT22;9038;48.208;16.308;2024-02-04T08:42:44;11.50;99.90
17827;DHT22;9038;48.208;16.308;2024-02-04T08:44:46;11.60;99.90
17827;DHT22;9038;48.208;16.308;2024-02-04T08:46:49;11.60;99.90
17827;DHT22;9038;48.208;16.308;2024-02-04T08:48:50;11.60;99.90
17827;DHT22;9038;48.208;16.308;2024-02-04T08:50:52;11.60;99.90
17827;DHT22;9038;48.208;16.308;2024-02-04T08:52:55;11.50;99.90
17827;DHT22;9038;48.208;16.308;2024-02-04T08:54:57;11.50;99.90
17827;DHT22;9038;48.208;16.308;2024-02-04T08:57:00;11.50;99.90
17827;DHT22;9038;48.208;16.308;2024-02-04T08:59:03;11.40;99.90
17827;DHT22;9038;48.208;16.308;2024-02-04T09:01:06;11.40;99.90
17827;DHT22;9038;48.208;16.308;2024-02-04T09:03:08;11.40;99.90
17827;DHT22;9038;48.208;16.308;2024-02-04T09:05:10;11.40;99.90
17827;DHT22;9038;48.208;16.308;2024-02-04T09:07:12;11.50;99.90
17827;DHT22;9038;48.208;16.308;2024-02-04T09:09:14;11.50;99.90
17827;DHT22;9038;48.208;16.308;2024-02-04T09:11:15;11.60;99.90
17827;DHT22;9038;48.208;16.308;2024-02-04T09:13:19;11.70;99.90
17827;DHT22;9038;48.208;16.308;2024-02-04T09:15:23;11.70;99.90
17827;DHT22;9038;48.208;16.308;2024-02-04T09:17:25;11.80;99.90
17827;DHT22;9038;48.208;16.308;2024-02-04T09:19:26;11.70;99.90
17827;DHT22;9038;48.208;16.308;2024-02-04T09:21:28;11.70;99.90
17827;DHT22;9038;48.208;16.308;2024-02-04T09:23:29;11.80;99.90
17827;DHT22;9038;48.208;16.308;2024-02-04T09:25:31;11.80;99.90
17827;DHT22;9038;48.208;16.308;2024-02-04T09:27:33;11.90;99.90
17827;DHT22;9038;48.208;16.308;2024-02-04T09:29:34;11.90;99.90
17827;DHT22;9038;48.208;16.308;2024-02-04T09:31:37;11.90;99.90
17827;DHT22;9038;48.208;16.308;2024-02-04T09:33:38;12.00;99.90
17827;DHT22;9038;48.208;16.308;2024-02-04T09:35:41;12.10;99.90
17827;DHT22;9038;48.208;16.308;2024-02-04T09:37:42;12.20;99.90
17827;DHT22;9038;48.208;16.308;2024-02-04T09:39:44;12.30;99.90
17827;DHT22;9038;48.208;16.308;2024-02-04T09:41:45;12.20;99.90
17827;DHT22;9038;48.208;16.308;2024-02-04T09:43:47;12.20;99.90
17827;DHT22;9038;48.208;16.308;2024-02-04T09:45:49;12.20;99.90
17827;DHT22;9038;48.208;16.308;2024-02-04T09:47:53;12.30;99.90
17827;DHT22;9038;48.208;16.308;2024-02-04T09:49:55;12.20;99.90
17827;DHT22;9038;48.208;16.308;2024-02-04T09:51:59;12.20;99.90
17827;DHT22;9038;48.208;16.308;2024-02-04T09:54:09;12.30;99.90
17827;DHT22;9038;48.208;16.308;2024-02-04T09:56:12;12.30;99.90
17827;DHT22;9038;48.208;16.308;2024-02-04T09:58:14;12.30;99.90
17827;DHT22;9038;48.208;16.308;2024-02-04T10:00:18;12.30;99.90
17827;DHT22;9038;48.208;16.308;2024-02-04T10:02:20;12.30;99.90
17827;DHT22;9038;48.208;16.308;2024-02-04T10:04:25;12.30;99.90
17827;DHT22;9038;48.208;16.308;2024-02-04T10:06:26;12.40;99.90
17827;DHT22;9038;48.208;16.308;2024-02-04T10:08:28;12.40;99.90
17827;DHT22;9038;48.208;16.308;2024-02-04T10:10:30;12.50;99.90
17827;DHT22;9038;48.208;16.308;2024-02-04T10:12:33;12.70;99.90
17827;DHT22;9038;48.208;16.308;2024-02-04T10:14:36;12.70;99.90
17827;DHT22;9038;48.208;16.308;2024-02-04T10:16:39;12.70;99.90
17827;DHT22;9038;48.208;16.308;2024-02-04T10:18:42;12.80;99.90
17827;DHT22;9038;48.208;16.308;2024-02-04T10:20:45;12.90;99.90
